createdAt,value
2018-06-28T00:02:19.910Z,50.00
2018-06-28T00:04:46.547Z,49.96
2018-06-28T00:07:13.520Z,49.98
2018-06-28T00:09:40.203Z,50.00
2018-06-28T00:12:06.822Z,50.07
2018-06-28T00:14:33.462Z,50.03
2018-06-28T00:17:00.106Z,50.02
2018-06-28T00:19:26.739Z,49.96
2018-06-28T00:21:53.382Z,50.05
2018-06-28T00:24:20.023Z,50.07
2018-06-28T00:26:46.665Z,50.09
2018-06-28T00:29:13.307Z,50.10
2018-06-28T00:31:39.959Z,50.22
2018-06-28T00:34:06.598Z,50.12
2018-06-28T00:36:33.278Z,50.20
2018-06-28T00:38:59.915Z,50.16
2018-06-28T00:41:26.552Z,50.26
2018-06-28T00:43:53.261Z,50.11
2018-06-28T00:46:19.927Z,50.08
2018-06-28T00:48:46.593Z,50.15
2018-06-28T00:51:13.285Z,50.33
2018-06-28T00:53:39.879Z,50.27
2018-06-28T00:56:06.559Z,50.19
2018-06-28T00:58:33.143Z,50.32
2018-06-28T01:00:59.786Z,50.32
2018-06-28T01:03:26.437Z,50.28
2018-06-28T01:05:53.111Z,50.33
2018-06-28T01:08:19.717Z,50.43
2018-06-28T01:10:46.364Z,50.32
2018-06-28T01:13:13.010Z,50.37
2018-06-28T01:15:39.649Z,50.35
2018-06-28T01:18:06.336Z,50.38
2018-06-28T01:20:32.983Z,50.35
2018-06-28T01:22:59.622Z,50.45
2018-06-28T01:25:26.272Z,50.41
2018-06-28T01:27:52.905Z,50.37
2018-06-28T01:30:19.550Z,50.23
2018-06-28T01:32:46.210Z,50.27
2018-06-28T01:35:12.855Z,50.25
2018-06-28T01:37:39.501Z,50.30
2018-06-28T01:40:06.140Z,50.18
2018-06-28T01:42:32.790Z,50.13
2018-06-28T01:44:59.436Z,50.11
2018-06-28T01:47:26.064Z,50.16
2018-06-28T01:49:52.709Z,50.12
2018-06-28T01:52:19.346Z,50.08
2018-06-28T01:54:45.989Z,50.10
2018-06-28T01:57:12.626Z,50.01
2018-06-28T01:59:39.321Z,50.08
2018-06-28T02:02:05.973Z,50.01
2018-06-28T02:04:32.609Z,49.96
2018-06-28T02:06:59.243Z,49.91
2018-06-28T02:09:25.875Z,49.93
2018-06-28T02:11:52.522Z,49.84
2018-06-28T02:14:19.158Z,49.91
2018-06-28T02:16:45.810Z,49.96
2018-06-28T02:19:12.455Z,49.87
2018-06-28T02:21:39.106Z,49.86
2018-06-28T02:24:05.754Z,49.78
2018-06-28T02:26:32.423Z,49.79
2018-06-28T02:28:59.037Z,49.79
2018-06-28T02:31:25.677Z,49.77
2018-06-28T02:33:52.316Z,49.74
2018-06-28T02:36:18.970Z,49.74
2018-06-28T02:38:45.605Z,49.72
2018-06-28T02:41:12.262Z,49.74
2018-06-28T02:43:38.892Z,49.74
2018-06-28T02:46:05.538Z,49.64
2018-06-28T02:48:32.166Z,49.80
2018-06-28T02:50:58.851Z,49.79
2018-06-28T02:53:25.488Z,49.80
2018-06-28T02:55:52.131Z,49.76
2018-06-28T02:58:18.767Z,49.67
2018-06-28T03:00:45.398Z,49.71
2018-06-28T03:03:12.047Z,49.65
2018-06-28T03:05:38.685Z,49.65
2018-06-28T03:08:05.326Z,49.65
2018-06-28T03:10:31.970Z,49.64
2018-06-28T03:12:58.610Z,49.60
2018-06-28T03:15:25.248Z,49.53
2018-06-28T03:17:51.925Z,49.51
2018-06-28T03:20:18.569Z,49.73
2018-06-28T03:22:45.210Z,49.68
2018-06-28T03:25:15.094Z,49.78
2018-06-28T03:27:41.791Z,49.64
2018-06-28T03:30:08.479Z,49.70
2018-06-28T03:32:35.116Z,50.02
2018-06-28T03:35:01.773Z,50.23
2018-06-28T03:37:28.402Z,50.19
2018-06-28T03:39:55.062Z,50.38
2018-06-28T03:42:21.702Z,50.49
2018-06-28T03:44:48.349Z,50.53
2018-06-28T03:47:15.021Z,50.32
2018-06-28T03:49:41.658Z,50.24
2018-06-28T03:52:08.326Z,50.14
2018-06-28T03:54:34.990Z,50.13
2018-06-28T03:57:01.635Z,50.13
2018-06-28T03:59:28.274Z,50.02
2018-06-28T04:01:54.918Z,49.95
2018-06-28T04:04:21.565Z,49.97
2018-06-28T04:06:48.204Z,49.87
2018-06-28T04:09:14.854Z,49.98
2018-06-28T04:11:41.497Z,49.98
2018-06-28T04:14:08.254Z,49.92
2018-06-28T04:16:34.884Z,49.81
2018-06-28T04:19:01.553Z,50.24
2018-06-28T04:21:28.205Z,50.12
2018-06-28T04:23:54.806Z,50.34
2018-06-28T04:26:21.453Z,50.51
2018-06-28T04:28:48.083Z,50.58
2018-06-28T04:31:14.721Z,50.33
2018-06-28T04:33:41.364Z,50.58
2018-06-28T04:36:08.006Z,50.59
2018-06-28T04:38:34.641Z,50.53
2018-06-28T04:41:01.393Z,50.49
2018-06-28T04:43:27.913Z,50.50
2018-06-28T04:45:54.587Z,50.42
2018-06-28T04:48:21.218Z,50.51
2018-06-28T04:50:47.869Z,50.44
2018-06-28T04:53:14.542Z,50.64
2018-06-28T04:55:41.179Z,50.70
2018-06-28T04:58:07.962Z,50.63
2018-06-28T05:00:34.601Z,50.52
2018-06-28T05:03:01.236Z,50.61
2018-06-28T05:05:27.913Z,50.52
2018-06-28T05:07:54.616Z,50.59
2018-06-28T05:10:21.351Z,50.67
2018-06-28T05:12:47.985Z,50.61
2018-06-28T05:15:14.646Z,50.64
2018-06-28T05:17:41.273Z,50.71
2018-06-28T05:20:07.989Z,50.52
2018-06-28T05:22:34.671Z,50.51
2018-06-28T05:25:01.321Z,50.61
2018-06-28T05:27:28.008Z,50.26
2018-06-28T05:29:54.670Z,50.50
2018-06-28T05:32:21.328Z,50.55
2018-06-28T05:34:48.007Z,50.49
2018-06-28T05:37:14.652Z,50.63
2018-06-28T05:39:41.261Z,50.50
2018-06-28T05:42:07.916Z,50.49
2018-06-28T05:44:34.553Z,50.50
2018-06-28T05:47:01.237Z,50.51
2018-06-28T05:49:27.828Z,50.35
2018-06-28T05:51:54.543Z,50.58
2018-06-28T05:54:21.179Z,50.42
2018-06-28T05:56:47.866Z,50.63
2018-06-28T05:59:14.507Z,50.53
2018-06-28T06:01:41.147Z,50.70
2018-06-28T06:04:07.798Z,50.67
2018-06-28T06:06:34.455Z,50.79
2018-06-28T06:09:01.108Z,50.78
2018-06-28T06:11:27.788Z,51.02
2018-06-28T06:13:54.444Z,51.22
2018-06-28T06:16:21.129Z,51.11
2018-06-28T06:18:47.899Z,51.18
2018-06-28T06:21:14.575Z,51.20
2018-06-28T06:23:41.273Z,51.03
2018-06-28T06:26:07.913Z,51.29
2018-06-28T06:28:34.552Z,51.58
2018-06-28T06:31:01.256Z,51.48
2018-06-28T06:33:27.874Z,51.11
2018-06-28T06:35:54.553Z,51.32
2018-06-28T06:38:21.190Z,51.03
2018-06-28T06:40:47.943Z,51.55
2018-06-28T06:43:14.488Z,51.17
2018-06-28T06:45:42.229Z,50.93
2018-06-28T06:48:08.946Z,51.01
2018-06-28T06:50:35.581Z,50.97
2018-06-28T06:53:02.260Z,51.27
2018-06-28T06:55:28.914Z,51.03
2018-06-28T06:57:55.608Z,51.30
2018-06-28T07:00:22.250Z,51.46
2018-06-28T07:02:48.907Z,51.41
2018-06-28T07:05:15.582Z,51.12
2018-06-28T07:07:42.194Z,50.98
2018-06-28T07:10:08.860Z,51.01
2018-06-28T07:12:35.571Z,51.19
2018-06-28T07:15:02.249Z,51.63
2018-06-28T07:17:28.925Z,51.51
2018-06-28T07:19:55.542Z,51.50
2018-06-28T07:22:22.226Z,51.56
2018-06-28T07:24:48.916Z,51.47
2018-06-28T07:27:15.556Z,51.07
2018-06-28T07:29:42.216Z,50.79
2018-06-28T07:32:08.857Z,51.26
2018-06-28T07:34:35.529Z,51.22
2018-06-28T07:37:02.170Z,51.04
2018-06-28T07:39:28.829Z,51.25
2018-06-28T07:41:55.470Z,51.24
2018-06-28T07:44:22.202Z,51.25
2018-06-28T07:49:15.495Z,51.43
2018-06-28T07:51:42.152Z,51.00
2018-06-28T07:54:08.877Z,51.02
2018-06-28T07:56:35.518Z,51.13
2018-06-28T07:59:02.167Z,51.28
2018-06-28T08:01:28.850Z,51.39
2018-06-28T08:03:55.462Z,51.58
2018-06-28T08:06:22.189Z,51.24
2018-06-28T08:08:48.851Z,51.37
2018-06-28T08:11:15.525Z,51.55
2018-06-28T08:13:42.206Z,51.51
2018-06-28T08:16:08.889Z,51.48
2018-06-28T08:18:35.498Z,51.82
2018-06-28T08:21:02.135Z,51.67
2018-06-28T08:23:28.824Z,51.83
2018-06-28T08:25:55.434Z,51.88
2018-06-28T08:28:22.120Z,51.71
2018-06-28T08:30:48.788Z,51.51
2018-06-28T08:33:16.828Z,51.13
2018-06-28T08:35:42.129Z,51.35
2018-06-28T08:38:08.784Z,51.65
2018-06-28T08:40:35.542Z,51.57
2018-06-28T08:43:02.183Z,51.54
2018-06-28T08:45:28.823Z,51.44
2018-06-28T08:47:58.085Z,51.38
2018-06-28T08:50:24.777Z,51.37
2018-06-28T08:52:51.652Z,51.35
2018-06-28T08:55:18.239Z,51.19
2018-06-28T08:57:44.943Z,51.17
2018-06-28T09:00:13.587Z,51.30
2018-06-28T09:02:40.246Z,51.35
2018-06-28T09:05:06.886Z,51.29
2018-06-28T09:07:33.528Z,51.48
2018-06-28T09:10:00.174Z,51.69
2018-06-28T09:12:28.177Z,51.68
2018-06-28T09:14:53.490Z,51.63
2018-06-28T09:17:20.142Z,51.67
2018-06-28T09:19:46.855Z,51.88
2018-06-28T09:22:13.461Z,51.67
2018-06-28T09:24:40.107Z,51.49
2018-06-28T09:27:06.753Z,51.61
2018-06-28T09:29:33.458Z,51.86
2018-06-28T09:32:00.141Z,51.87
2018-06-28T09:34:26.782Z,51.89
2018-06-28T09:36:53.445Z,51.78
2018-06-28T09:39:22.943Z,52.04
2018-06-28T09:41:49.587Z,52.08
2018-06-28T09:44:16.256Z,51.96
2018-06-28T09:46:42.891Z,52.06
2018-06-28T09:49:10.549Z,52.16
2018-06-28T09:51:37.245Z,52.22
2018-06-28T09:54:03.895Z,52.27
2018-06-28T09:56:30.632Z,52.31
2018-06-28T09:58:57.307Z,52.45
2018-06-28T10:01:23.957Z,52.45
2018-06-28T10:03:50.638Z,52.53
2018-06-28T10:06:17.278Z,52.15
2018-06-28T10:08:44.031Z,52.29
2018-06-28T10:11:10.667Z,52.18
2018-06-28T10:13:37.344Z,52.49
2018-06-28T10:16:04.032Z,52.99
2018-06-28T10:18:30.681Z,53.26
2018-06-28T10:20:57.323Z,53.13
2018-06-28T10:23:23.994Z,53.44
2018-06-28T10:25:50.705Z,53.10
2018-06-28T10:28:17.353Z,53.06
2018-06-28T10:30:43.976Z,53.29
2018-06-28T10:33:10.685Z,53.47
2018-06-28T10:35:37.334Z,53.01
2018-06-28T10:38:03.971Z,53.52
2018-06-28T10:40:30.626Z,53.27
2018-06-28T10:42:57.292Z,53.25
2018-06-28T10:45:24.035Z,53.59
2018-06-28T10:47:50.704Z,53.60
2018-06-28T10:50:17.308Z,53.67
2018-06-28T10:52:43.965Z,53.28
2018-06-28T10:55:10.607Z,53.09
2018-06-28T10:57:37.355Z,52.78
2018-06-28T11:00:04.079Z,52.99
2018-06-28T11:02:30.717Z,53.65
2018-06-28T11:04:57.509Z,53.21
2018-06-28T11:07:24.157Z,53.40
2018-06-28T11:09:50.800Z,53.41
2018-06-28T11:12:17.511Z,53.32
2018-06-28T11:14:44.174Z,53.47
2018-06-28T11:17:10.865Z,53.42
2018-06-28T11:19:37.475Z,53.28
2018-06-28T11:22:04.152Z,53.25
2018-06-28T11:24:30.835Z,53.51
2018-06-28T11:26:57.542Z,53.35
2018-06-28T11:29:24.181Z,53.27
2018-06-28T11:31:50.826Z,53.24
2018-06-28T11:34:17.501Z,53.26
2018-06-28T11:36:44.137Z,53.29
2018-06-28T11:39:10.842Z,53.20
2018-06-28T11:41:37.517Z,53.19
2018-06-28T11:44:04.244Z,53.34
2018-06-28T11:46:30.911Z,53.01
2018-06-28T11:48:57.596Z,52.85
2018-06-28T11:51:24.206Z,53.04
2018-06-28T11:53:50.862Z,52.94
2018-06-28T11:56:17.517Z,53.04
2018-06-28T11:58:44.160Z,52.83
2018-06-28T12:01:10.819Z,53.10
2018-06-28T12:03:37.457Z,52.90
2018-06-28T12:06:04.104Z,52.87
2018-06-28T12:08:30.834Z,52.83
2018-06-28T12:10:57.497Z,52.88
2018-06-28T12:13:26.316Z,52.94
2018-06-28T12:15:53.284Z,52.91
2018-06-28T12:18:19.897Z,52.60
2018-06-28T12:20:46.559Z,52.81
2018-06-28T12:23:13.646Z,52.80
2018-06-28T12:25:43.027Z,52.77
2018-06-28T12:28:09.785Z,53.03
2018-06-28T12:30:36.444Z,52.91
2018-06-28T12:33:03.143Z,52.87
2018-06-28T12:35:29.801Z,52.83
2018-06-28T12:37:56.508Z,52.53
2018-06-28T12:40:23.183Z,52.48
2018-06-28T12:42:52.051Z,52.39
2018-06-28T12:45:18.714Z,52.24
2018-06-28T12:47:45.419Z,52.55
2018-06-28T12:50:13.231Z,52.49
2018-06-28T12:52:39.890Z,52.34
2018-06-28T12:55:06.492Z,52.41
2018-06-28T12:57:33.128Z,52.37
2018-06-28T12:59:59.778Z,52.32
2018-06-28T13:02:26.409Z,52.34
2018-06-28T13:04:53.098Z,52.21
2018-06-28T13:07:19.722Z,52.10
2018-06-28T13:09:46.398Z,52.14
2018-06-28T13:12:13.133Z,52.03
2018-06-28T13:14:39.742Z,52.12
2018-06-28T13:17:06.429Z,52.16
2018-06-28T13:19:33.035Z,52.19
2018-06-28T13:21:59.712Z,52.10
2018-06-28T13:24:26.335Z,51.89
2018-06-28T13:26:53.025Z,52.15
2018-06-28T13:29:19.746Z,52.11
2018-06-28T13:31:46.411Z,52.01
2018-06-28T13:34:13.076Z,51.74
2018-06-28T13:36:39.710Z,51.72
2018-06-28T13:39:06.474Z,51.74
2018-06-28T13:41:33.379Z,51.75
2018-06-28T13:43:59.752Z,51.69
2018-06-28T13:46:26.427Z,51.86
2018-06-28T13:48:53.181Z,51.70
2018-06-28T13:51:19.824Z,51.54
2018-06-28T13:53:46.479Z,51.62
2018-06-28T13:56:13.155Z,51.48
2018-06-28T13:58:39.785Z,51.53
2018-06-28T14:01:06.426Z,51.50
2018-06-28T14:03:33.068Z,51.55
2018-06-28T14:05:59.701Z,51.67
2018-06-28T14:08:26.387Z,51.61
2018-06-28T14:10:53.033Z,51.61
2018-06-28T14:13:19.715Z,51.67
2018-06-28T14:15:46.365Z,51.60
2018-06-28T14:18:15.911Z,51.90
2018-06-28T14:20:42.700Z,52.21
2018-06-28T14:23:09.307Z,52.42
2018-06-28T14:25:35.952Z,52.19
2018-06-28T14:28:02.676Z,52.17
2018-06-28T14:30:29.275Z,52.42
2018-06-28T14:32:55.969Z,52.71
2018-06-28T14:35:22.606Z,52.67
2018-06-28T14:37:49.304Z,52.15
2018-06-28T14:40:17.394Z,52.05
2018-06-28T14:42:42.595Z,51.89
2018-06-28T14:45:09.249Z,51.75
2018-06-28T14:47:35.953Z,51.58
2018-06-28T14:50:02.525Z,51.77
2018-06-28T14:52:29.163Z,51.95
2018-06-28T14:54:55.811Z,52.02
2018-06-28T14:57:22.450Z,52.01
2018-06-28T14:59:49.097Z,52.01
2018-06-28T15:02:15.731Z,51.93
2018-06-28T15:04:42.374Z,52.12
2018-06-28T15:07:09.068Z,52.08
2018-06-28T15:09:35.841Z,52.10
2018-06-28T15:12:02.567Z,52.17
2018-06-28T15:14:29.203Z,52.29
2018-06-28T15:16:55.851Z,52.26
2018-06-28T15:19:22.487Z,51.82
2018-06-28T15:21:49.214Z,51.92
2018-06-28T15:24:15.891Z,51.99
2018-06-28T15:26:42.533Z,52.25
2018-06-28T15:29:09.160Z,52.15
2018-06-28T15:31:35.813Z,52.06
2018-06-28T15:34:02.466Z,52.29
2018-06-28T15:36:29.137Z,52.20
2018-06-28T15:38:55.844Z,52.17
2018-06-28T15:41:22.495Z,52.34
2018-06-28T15:43:49.130Z,52.58
2018-06-28T15:46:15.776Z,52.51
2018-06-28T15:48:42.460Z,52.65
2018-06-28T15:51:09.146Z,52.63
2018-06-28T15:53:35.798Z,52.60
2018-06-28T15:56:02.481Z,52.37
2018-06-28T15:58:29.171Z,52.50
2018-06-28T16:00:55.851Z,52.60
2018-06-28T16:03:22.479Z,52.49
2018-06-28T16:05:49.121Z,52.42
2018-06-28T16:08:15.757Z,52.46
2018-06-28T16:10:42.402Z,52.27
2018-06-28T16:13:09.036Z,52.38
2018-06-28T16:15:35.673Z,52.22
2018-06-28T16:18:02.352Z,52.31
2018-06-28T16:20:29.029Z,52.44
2018-06-28T16:22:55.674Z,52.40
2018-06-28T16:25:22.312Z,52.31
2018-06-28T16:27:48.989Z,52.30
2018-06-28T16:30:15.634Z,52.28
2018-06-28T16:32:42.351Z,52.21
2018-06-28T16:35:08.955Z,52.27
2018-06-28T16:37:35.595Z,52.09
2018-06-28T16:40:02.230Z,52.21
2018-06-28T16:42:28.881Z,52.15
2018-06-28T16:44:55.597Z,52.12
2018-06-28T16:47:22.211Z,52.20
2018-06-28T16:49:48.848Z,52.17
2018-06-28T16:52:15.571Z,52.08
2018-06-28T16:54:42.178Z,52.08
2018-06-28T16:57:08.854Z,52.05
2018-06-28T16:59:35.539Z,52.02
2018-06-28T17:02:02.104Z,51.93
2018-06-28T17:04:28.792Z,51.64
2018-06-28T17:06:55.365Z,52.00
2018-06-28T17:09:22.045Z,52.07
2018-06-28T17:11:48.723Z,52.16
2018-06-28T17:14:15.376Z,52.09
2018-06-28T17:16:42.009Z,52.09
2018-06-28T17:19:08.656Z,52.16
2018-06-28T17:21:35.289Z,52.14
2018-06-28T17:24:02.011Z,52.14
2018-06-28T17:26:28.681Z,52.03
2018-06-28T17:28:55.305Z,52.15
2018-06-28T17:31:21.942Z,52.09
2018-06-28T17:33:48.868Z,52.17
2018-06-28T17:36:15.466Z,52.19
2018-06-28T17:38:43.419Z,52.10
2018-06-28T17:41:08.752Z,52.12
2018-06-28T17:43:35.384Z,52.07
2018-06-28T17:46:02.113Z,52.11
2018-06-28T17:48:28.794Z,52.12
2018-06-28T17:50:55.476Z,52.05
2018-06-28T17:53:22.152Z,51.88
2018-06-28T17:55:48.787Z,51.97
2018-06-28T17:58:15.424Z,51.93
2018-06-28T18:00:42.081Z,52.08
2018-06-28T18:03:08.722Z,52.14
2018-06-28T18:05:35.373Z,52.07
2018-06-28T18:08:02.024Z,51.99
2018-06-28T18:10:28.668Z,52.04
2018-06-28T18:12:55.311Z,52.07
2018-06-28T18:15:22.031Z,51.98
2018-06-28T18:17:48.603Z,52.03
2018-06-28T18:20:15.298Z,51.94
2018-06-28T18:22:41.950Z,51.97
2018-06-28T18:25:08.593Z,52.01
2018-06-28T18:27:35.278Z,51.92
2018-06-28T18:30:01.944Z,51.90
2018-06-28T18:32:28.547Z,51.93
2018-06-28T18:34:55.188Z,51.91
2018-06-28T18:37:21.826Z,51.80
2018-06-28T18:39:48.467Z,51.88
2018-06-28T18:42:15.139Z,51.91
2018-06-28T18:44:41.744Z,51.89
2018-06-28T18:47:08.391Z,51.78
2018-06-28T18:49:35.029Z,51.87
2018-06-28T18:52:01.667Z,51.80
2018-06-28T18:54:28.362Z,51.61
2018-06-28T18:56:55.009Z,51.69
2018-06-28T18:59:21.648Z,51.84
2018-06-28T19:01:48.350Z,51.83
2018-06-28T19:04:14.935Z,51.84
2018-06-28T19:06:41.626Z,51.90
2018-06-28T19:09:08.265Z,51.88
2018-06-28T19:11:34.954Z,51.83
2018-06-28T19:14:01.662Z,51.85
2018-06-28T19:16:28.228Z,51.72
2018-06-28T19:18:54.933Z,51.79
2018-06-28T19:21:21.509Z,51.84
2018-06-28T19:23:48.189Z,51.83
2018-06-28T19:26:14.829Z,51.78
2018-06-28T19:28:41.551Z,51.88
2018-06-28T19:31:08.189Z,51.80
2018-06-28T19:33:34.826Z,51.78
2018-06-28T19:36:01.466Z,51.81
2018-06-28T19:38:28.102Z,51.75
2018-06-28T19:40:54.754Z,51.80
2018-06-28T19:43:21.378Z,51.72
2018-06-28T19:45:48.059Z,51.78
2018-06-28T19:48:14.705Z,51.80
2018-06-28T19:50:41.360Z,51.74
2018-06-28T19:53:07.999Z,51.76
2018-06-28T19:55:34.637Z,51.72
2018-06-28T19:58:01.293Z,51.73
2018-06-28T20:00:27.938Z,51.75
2018-06-28T20:02:54.583Z,51.66
2018-06-28T20:05:21.223Z,51.70
2018-06-28T20:07:47.896Z,51.74
2018-06-28T20:10:14.780Z,51.72
2018-06-28T20:12:41.478Z,51.71
2018-06-28T20:15:08.119Z,51.72
2018-06-28T20:17:34.763Z,51.73
2018-06-28T20:20:01.417Z,51.72
2018-06-28T20:22:28.066Z,51.63
2018-06-28T20:24:54.709Z,51.69
2018-06-28T20:27:21.350Z,51.70
2018-06-28T20:29:48.099Z,51.70
2018-06-28T20:32:14.642Z,51.65
2018-06-28T20:34:41.272Z,51.80
2018-06-28T20:37:07.967Z,51.70
2018-06-28T20:39:34.649Z,51.61
2018-06-28T20:42:01.296Z,51.53
2018-06-28T20:44:28.000Z,51.71
2018-06-28T20:46:54.636Z,51.58
2018-06-28T20:49:21.284Z,51.64
2018-06-28T20:51:47.920Z,51.71
2018-06-28T20:54:14.582Z,51.62
2018-06-28T20:56:41.269Z,51.72
2018-06-28T20:59:07.935Z,51.69
2018-06-28T21:01:34.596Z,51.67
2018-06-28T21:04:01.264Z,51.57
2018-06-28T21:06:27.938Z,51.65
2018-06-28T21:08:54.607Z,51.56
2018-06-28T21:11:21.282Z,51.52
2018-06-28T21:13:47.963Z,51.57
2018-06-28T21:16:14.630Z,51.55
2018-06-28T21:18:41.306Z,51.49
2018-06-28T21:21:07.972Z,51.54
2018-06-28T21:23:34.648Z,51.65
2018-06-28T21:26:01.323Z,51.41
2018-06-28T21:28:28.006Z,51.43
2018-06-28T21:30:54.762Z,51.55
2018-06-28T21:33:21.486Z,51.46
2018-06-28T21:35:48.118Z,51.42
2018-06-28T21:38:14.785Z,51.46
2018-06-28T21:40:41.475Z,51.44
2018-06-28T21:43:08.152Z,51.43
2018-06-28T21:45:34.892Z,51.32
2018-06-28T21:48:01.562Z,51.38
2018-06-28T21:50:28.229Z,51.53
2018-06-28T21:52:54.906Z,51.31
2018-06-28T21:55:21.700Z,51.33
2018-06-28T21:57:48.283Z,51.32
2018-06-28T22:00:14.957Z,51.28
2018-06-28T22:02:41.655Z,51.41
2018-06-28T22:05:08.304Z,51.25
2018-06-28T22:07:34.990Z,51.46
2018-06-28T22:10:01.697Z,51.21
2018-06-28T22:12:28.367Z,51.32
2018-06-28T22:14:55.136Z,51.31
2018-06-28T22:17:21.814Z,51.26
2018-06-28T22:19:48.570Z,51.28
2018-06-28T22:22:15.239Z,51.30
2018-06-28T22:24:41.900Z,51.15
2018-06-28T22:27:08.568Z,51.20
2018-06-28T22:29:35.247Z,51.22
2018-06-28T22:32:01.920Z,51.19
2018-06-28T22:34:28.587Z,51.20
2018-06-28T22:36:55.269Z,51.22
2018-06-28T22:39:21.982Z,51.17
2018-06-28T22:41:48.693Z,51.33
2018-06-28T22:44:15.410Z,51.14
2018-06-28T22:46:42.077Z,51.26
2018-06-28T22:49:08.795Z,51.29
2018-06-28T22:51:35.465Z,51.22
2018-06-28T22:54:02.132Z,51.23
2018-06-28T22:56:28.842Z,51.33
2018-06-28T22:58:55.512Z,51.17
2018-06-28T23:01:22.186Z,51.24
2018-06-28T23:03:48.851Z,51.21
2018-06-28T23:06:15.566Z,51.24
2018-06-28T23:08:42.287Z,51.18
2018-06-28T23:11:08.961Z,51.26
2018-06-28T23:13:35.679Z,51.16
2018-06-28T23:16:02.347Z,51.13
2018-06-28T23:18:29.050Z,51.15
2018-06-28T23:20:55.718Z,51.22
2018-06-28T23:23:22.439Z,51.22
2018-06-28T23:25:49.114Z,51.22
2018-06-28T23:28:15.864Z,51.21
2018-06-28T23:30:42.539Z,51.16
2018-06-28T23:33:09.219Z,51.16
2018-06-28T23:35:35.930Z,51.20
2018-06-28T23:38:02.599Z,51.24
2018-06-28T23:40:29.324Z,51.23
2018-06-28T23:42:55.988Z,51.09
2018-06-28T23:45:22.659Z,51.09
2018-06-28T23:47:49.472Z,51.12
2018-06-28T23:50:16.066Z,51.16
2018-06-28T23:52:42.730Z,51.07
2018-06-28T23:55:09.406Z,51.16
2018-06-28T23:57:36.126Z,51.04
